Terminal Aerodrome Forecast
Issued by NWS

Home | Current Version | Previous Version | Text Only | Print | Product List | Glossary On
Versions: 1 2 3 4 5 6 7 8 9 10 11 12 13 14 15 16 17
000
FTUS42 KFFC 101900 AAA
TAFPDK
TAF AMD
KPDK 101957Z 1020/1118 30004KT P6SM VCSH SCT045 BKN090
     FM102300 32003KT P6SM SCT060 SCT100
     FM110800 00000KT P6SM FEW015
     FM111400 06004KT P6SM SCT035=

USA.gov is the U.S. government's official web portal to all federal, state and local government web resources and services.